Time;durP1;ratioP1;P1;durP2;ratioP2;P2;SDS_P1;SDS_P2;PMS_P1;PMS_P2;Temp;Humidity;BMP_temperature;BMP_pressure;BME280_temperature;BME280_humidity;BME280_pressure;Samples;Min_cycle;Max_cycle;Signal;HPM_P1;HPM_P2
2022/08/01 00:00:25;;;;;;;;;;;;;;;21.06;50.45;100176.37;5357734;32;35116;-73
2022/08/01 00:03:27;;;;;;;;;;;;;;;20.61;52.46;100188.28;5374583;32;35464;-73
2022/08/01 00:06:29;;;;;;;;;;;;;;;20.45;53.15;100186.91;5356863;32;44361;-72
2022/08/01 00:09:31;;;;;;;;;;;;;;;20.68;51.68;100184.16;5374146;32;35523;-73
2022/08/01 00:12:32;;;;;;;;;;;;;;;20.64;51.53;100185.38;5354823;32;36339;-73
2022/08/01 00:15:34;;;;;;;;;;;;;;;20.89;50.54;100176.13;5374136;32;36418;-74
2022/08/01 00:18:36;;;;;;;;;;;;;;;20.39;53.25;100189.19;5360697;32;35449;-73
2022/08/01 00:21:38;;;;;;;;;;;;;;;20.90;51.44;100188.50;5332206;32;35567;-73
2022/08/01 00:24:52;;;;;;;;;;;;;;;20.60;52.78;100186.59;5361722;32;35605;-71
2022/08/01 00:27:54;;;;;;;;;;;;;;;21.45;49.33;100165.06;5357272;32;36021;-72
2022/08/01 00:30:56;;;;;;;;;;;;;;;20.52;52.14;100177.41;5374429;32;34663;-72
2022/08/01 00:33:58;;;;;;;;;;;;;;;20.50;52.72;100173.19;5343339;32;43708;-73
2022/08/01 00:37:00;;;;;;;;;;;;;;;20.85;51.71;100174.69;5354985;32;35406;-74
2022/08/01 00:40:02;;;;;;;;;;;;;;;21.16;50.71;100163.06;5350961;32;35404;-74
2022/08/01 00:43:04;;;;;;;;;;;;;;;20.84;50.27;100173.84;5342118;32;35578;-75
2022/08/01 00:46:05;;;;;;;;;;;;;;;20.43;52.84;100170.16;5374522;32;34669;-73
2022/08/01 00:49:07;;;;;;;;;;;;;;;20.76;51.74;100170.97;5357495;32;35432;-73
2022/08/01 00:52:11;;;;;;;;;;;;;;;20.88;51.02;100175.28;5367984;32;35432;-72
2022/08/01 00:55:13;;;;;;;;;;;;;;;20.47;52.57;100170.75;5359416;32;35330;-74
2022/08/01 00:58:16;;;;;;;;;;;;;;;20.99;51.43;100172.50;5370167;32;35548;-73
2022/08/01 01:01:20;;;;;;;;;;;;;;;20.53;53.54;100175.56;5363378;32;35515;-73
2022/08/01 01:04:22;;;;;;;;;;;;;;;20.00;54.87;100170.16;5357610;32;36062;-74
2022/08/01 01:07:44;;;;;;;;;;;;;;;19.86;55.09;100176.63;5373386;32;36116;-75
2022/08/01 01:11:11;;;;;;;;;;;;;;;19.80;55.82;100171.78;5358225;32;35416;-72
2022/08/01 01:14:26;;;;;;;;;;;;;;;20.04;54.69;100168.97;5368270;32;35792;-74
2022/08/01 01:17:29;;;;;;;;;;;;;;;20.26;54.39;100166.19;5364246;32;44576;-73
2022/08/01 01:20:52;;;;;;;;;;;;;;;19.58;56.22;100171.81;5351517;32;36552;-74
2022/08/01 01:23:59;;;;;;;;;;;;;;;20.06;54.80;100177.69;5370060;32;34737;-74
2022/08/01 01:27:19;;;;;;;;;;;;;;;20.79;52.36;100174.22;5350309;32;44409;-74
2022/08/01 01:30:22;;;;;;;;;;;;;;;20.21;53.87;100170.22;5362833;32;35268;-73
2022/08/01 01:33:25;;;;;;;;;;;;;;;20.04;53.86;100168.97;5354912;32;35958;-74
2022/08/01 01:36:27;;;;;;;;;;;;;;;19.97;54.44;100167.78;5331491;32;35796;-74
2022/08/01 01:39:29;;;;;;;;;;;;;;;19.97;54.76;100162.44;5358606;32;44435;-74
2022/08/01 01:42:31;;;;;;;;;;;;;;;20.32;53.75;100162.19;5352118;32;34738;-75
2022/08/01 01:45:33;;;;;;;;;;;;;;;19.73;55.57;100160.78;5366942;32;35812;-74
2022/08/01 01:48:35;;;;;;;;;;;;;;;19.42;56.71;100156.16;5341983;32;38557;-73
2022/08/01 01:51:37;;;;;;;;;;;;;;;20.17;54.62;100158.13;5360764;32;35603;-74
2022/08/01 01:54:40;;;;;;;;;;;;;;;20.36;53.44;100152.94;5356760;32;35977;-73
2022/08/01 01:57:42;;;;;;;;;;;;;;;20.50;52.94;100147.31;5355907;32;35238;-74
2022/08/01 02:00:44;;;;;;;;;;;;;;;20.82;51.01;100141.94;5359254;32;35307;-74
2022/08/01 02:03:46;;;;;;;;;;;;;;;20.00;54.25;100147.00;5356690;32;35529;-74
2022/08/01 02:06:49;;;;;;;;;;;;;;;20.74;52.28;100146.25;5364027;32;34796;-75
2022/08/01 02:09:51;;;;;;;;;;;;;;;20.92;51.70;100141.97;5356378;32;35426;-72
2022/08/01 02:12:52;;;;;;;;;;;;;;;20.43;52.65;100143.44;5359733;32;34711;-72
2022/08/01 02:15:54;;;;;;;;;;;;;;;20.62;53.00;100142.78;5372132;32;35733;-72
2022/08/01 02:19:01;;;;;;;;;;;;;;;20.01;54.70;100148.69;5357059;32;44080;-74
2022/08/01 02:22:08;;;;;;;;;;;;;;;20.59;53.42;100144.84;5357884;32;36204;-74
2022/08/01 02:25:11;;;;;;;;;;;;;;;19.72;55.73;100136.91;5331492;32;35401;-72
2022/08/01 02:28:15;;;;;;;;;;;;;;;19.73;55.90;100146.59;5357183;32;35518;-73
2022/08/01 02:31:19;;;;;;;;;;;;;;;20.04;55.32;100142.28;5358156;32;35275;-73
2022/08/01 02:34:21;;;;;;;;;;;;;;;20.17;54.94;100139.44;5342806;32;35674;-74
2022/08/01 02:37:23;;;;;;;;;;;;;;;20.19;54.49;100146.34;5351540;32;35940;-74
2022/08/01 02:40:28;;;;;;;;;;;;;;;19.62;56.55;100143.94;5335872;32;36931;-75
2022/08/01 02:43:30;;;;;;;;;;;;;;;19.51;56.89;100139.44;5366073;32;45277;-74
2022/08/01 02:46:39;;;;;;;;;;;;;;;20.15;54.91;100138.69;5343516;32;36481;-73
2022/08/01 02:49:45;;;;;;;;;;;;;;;19.89;55.73;100136.38;5361942;32;34323;-73
2022/08/01 02:52:54;;;;;;;;;;;;;;;19.79;55.77;100135.44;5354706;32;35928;-73
2022/08/01 02:55:56;;;;;;;;;;;;;;;19.98;55.63;100148.13;5342825;32;34796;-73
2022/08/01 02:58:58;;;;;;;;;;;;;;;19.77;56.14;100132.03;5359024;32;44615;-73
2022/08/01 03:02:00;;;;;;;;;;;;;;;19.73;56.55;100135.94;5357306;32;34840;-73
2022/08/01 03:05:04;;;;;;;;;;;;;;;19.96;55.86;100140.22;5360663;32;35401;-73
2022/08/01 03:08:06;;;;;;;;;;;;;;;20.32;54.38;100138.16;5357989;32;35391;-73
2022/08/01 03:11:15;;;;;;;;;;;;;;;19.50;56.62;100121.75;5333244;32;34791;-73
2022/08/01 03:14:17;;;;;;;;;;;;;;;19.63;54.86;100130.47;5375409;32;36646;-72
2022/08/01 03:17:20;;;;;;;;;;;;;;;19.76;55.01;100127.66;5356124;32;36216;-74
2022/08/01 03:20:24;;;;;;;;;;;;;;;20.64;52.90;100134.63;5360210;32;36791;-73
2022/08/01 03:23:26;;;;;;;;;;;;;;;20.80;51.68;100135.00;5359014;32;35661;-73
2022/08/01 03:26:39;;;;;;;;;;;;;;;20.94;51.63;100125.81;5367062;32;35524;-73
2022/08/01 03:29:41;;;;;;;;;;;;;;;20.86;51.88;100120.28;5363006;32;35879;-73
2022/08/01 03:32:43;;;;;;;;;;;;;;;20.23;53.52;100125.59;5342942;32;35875;-74
2022/08/01 03:35:53;;;;;;;;;;;;;;;20.09;54.63;100125.88;5374056;32;36186;-73
2022/08/01 03:38:56;;;;;;;;;;;;;;;19.75;55.49;100126.81;5323610;32;35582;-75
2022/08/01 03:41:59;;;;;;;;;;;;;;;19.52;55.84;100122.50;5367143;32;44735;-73
2022/08/01 03:45:06;;;;;;;;;;;;;;;20.42;53.46;100119.56;5344923;32;35352;-73
2022/08/01 03:48:15;;;;;;;;;;;;;;;19.79;54.97;100130.09;5347657;32;34797;-73
2022/08/01 03:51:17;;;;;;;;;;;;;;;21.05;51.43;100118.53;5358945;32;35843;-72
2022/08/01 03:54:24;;;;;;;;;;;;;;;21.19;51.00;100121.84;5359541;32;35568;-73
2022/08/01 03:57:28;;;;;;;;;;;;;;;20.28;53.47;100132.22;5359094;32;35626;-72
2022/08/01 04:00:40;;;;;;;;;;;;;;;19.63;55.60;100132.31;5344502;32;44564;-73
2022/08/01 04:03:42;;;;;;;;;;;;;;;19.88;55.38;100131.16;5371907;32;35303;-72
2022/08/01 04:06:44;;;;;;;;;;;;;;;19.92;54.83;100125.47;5346399;32;36089;-73
2022/08/01 04:09:46;;;;;;;;;;;;;;;20.06;54.84;100135.00;5357753;32;35930;-70
2022/08/01 04:12:48;;;;;;;;;;;;;;;20.50;53.39;100141.16;5366144;32;36093;-74
2022/08/01 04:15:50;;;;;;;;;;;;;;;20.35;53.90;100145.94;5358197;32;36974;-75
2022/08/01 04:18:52;;;;;;;;;;;;;;;20.62;53.57;100148.13;5374216;32;35840;-72
2022/08/01 04:21:54;;;;;;;;;;;;;;;21.35;51.54;100147.12;5351033;32;35584;-72
2022/08/01 04:28:16;;;;;;;;;;;;;;;21.02;51.94;100142.88;5401718;32;20001;-93
2022/08/01 04:31:25;;;;;;;;;;;;;;;21.60;50.63;100142.28;5388732;32;35880;-93
2022/08/01 04:34:29;;;;;;;;;;;;;;;21.22;52.08;100146.47;5388067;32;33215;-93
2022/08/01 04:37:36;;;;;;;;;;;;;;;21.60;50.71;100142.28;5397429;32;35462;-91
2022/08/01 04:40:42;;;;;;;;;;;;;;;21.88;50.24;100138.00;5382534;32;43918;-91
2022/08/01 04:43:46;;;;;;;;;;;;;;;22.41;48.69;100151.88;5398082;32;33986;-92
2022/08/01 04:46:50;;;;;;;;;;;;;;;22.75;47.94;100150.56;5374201;32;36758;-91
2022/08/01 04:49:56;;;;;;;;;;;;;;;23.30;46.24;100153.38;5377962;32;36877;-92
2022/08/01 04:52:59;;;;;;;;;;;;;;;22.92;46.66;100141.78;5376622;32;36038;-92
2022/08/01 04:56:02;;;;;;;;;;;;;;;24.05;44.80;100142.41;5405586;32;34784;-93
2022/08/01 05:02:30;;;;;;;;;;;;;;;24.58;43.58;100138.87;5386467;32;37428;-93
2022/08/01 05:05:35;;;;;;;;;;;;;;;25.38;41.31;100142.28;5387062;32;34686;-94
2022/08/01 05:08:38;;;;;;;;;;;;;;;25.03;41.92;100137.00;5373920;32;44315;-93
2022/08/01 05:11:42;;;;;;;;;;;;;;;25.61;40.59;100134.44;5408285;32;34018;-92
2022/08/01 05:14:46;;;;;;;;;;;;;;;27.30;37.35;100141.09;5393667;32;34502;-93
2022/08/01 05:17:52;;;;;;;;;;;;;;;26.58;38.08;100145.59;5402593;32;35648;-92
2022/08/01 05:20:55;;;;;;;;;;;;;;;25.84;39.84;100140.12;5390286;32;36124;-90
2022/08/01 05:24:00;;;;;;;;;;;;;;;26.50;38.11;100141.06;5384157;32;34352;-90
2022/08/01 05:27:06;;;;;;;;;;;;;;;26.69;37.87;100146.09;5388892;32;35164;-94
2022/08/01 05:30:15;;;;;;;;;;;;;;;26.96;37.24;100141.34;5395067;32;44034;-92
2022/08/01 05:33:21;;;;;;;;;;;;;;;27.89;35.69;100141.56;5419575;32;32784;-91
2022/08/01 05:36:27;;;;;;;;;;;;;;;29.26;33.60;100134.31;5383986;32;36287;-91
2022/08/01 05:39:31;;;;;;;;;;;;;;;29.49;32.38;100137.75;5384696;32;36751;-92
2022/08/01 05:42:36;;;;;;;;;;;;;;;28.74;34.02;100143.31;5401423;32;44481;-92
2022/08/01 05:45:41;;;;;;;;;;;;;;;29.99;31.70;100133.38;5386777;32;35619;-93
2022/08/01 05:48:43;;;;;;;;;;;;;;;28.75;33.63;100142.28;5403758;32;34201;-90
2022/08/01 05:51:46;;;;;;;;;;;;;;;28.32;34.95;100150.91;5373218;32;35833;-91
2022/08/01 05:54:49;;;;;;;;;;;;;;;29.37;32.14;100134.69;5394166;32;37427;-92
2022/08/01 05:57:54;;;;;;;;;;;;;;;27.84;34.39;100143.09;5393780;32;37590;-94
2022/08/01 06:00:58;;;;;;;;;;;;;;;28.71;33.25;100149.06;5402367;32;35225;-94
2022/08/01 06:04:04;;;;;;;;;;;;;;;27.93;34.52;100139.31;5405607;32;37045;-92
2022/08/01 06:07:13;;;;;;;;;;;;;;;29.33;32.21;100127.97;5390708;32;43545;-95
2022/08/01 06:10:29;;;;;;;;;;;;;;;29.28;32.10;100126.84;5426488;32;36134;-96
2022/08/01 06:13:53;;;;;;;;;;;;;;;29.43;32.29;100135.78;5402602;32;45632;-95
2022/08/01 06:16:58;;;;;;;;;;;;;;;29.77;31.59;100134.38;5390841;32;34324;-95
2022/08/01 06:20:06;;;;;;;;;;;;;;;27.69;34.84;100149.22;5404429;32;36903;-93
2022/08/01 06:23:15;;;;;;;;;;;;;;;29.54;32.29;100140.75;5388596;32;42860;-96
2022/08/01 06:26:34;;;;;;;;;;;;;;;28.62;33.17;100148.31;5385697;32;34032;-91
2022/08/01 06:29:39;;;;;;;;;;;;;;;28.76;33.44;100141.25;5360015;32;43710;-91
2022/08/01 06:32:52;;;;;;;;;;;;;;;29.73;31.82;100139.34;5338268;32;34510;-95
2022/08/01 06:35:55;;;;;;;;;;;;;;;30.77;29.77;100141.66;5384931;32;36676;-93
2022/08/01 06:38:59;;;;;;;;;;;;;;;30.33;29.57;100145.41;5376324;32;36276;-94
2022/08/01 06:42:07;;;;;;;;;;;;;;;30.87;29.07;100142.16;5374348;32;36186;-95
2022/08/01 06:45:22;;;;;;;;;;;;;;;28.86;32.15;100163.47;5387477;32;34504;-94
2022/08/01 06:48:39;;;;;;;;;;;;;;;29.96;30.79;100157.31;5394177;32;34242;-91
2022/08/01 06:51:51;;;;;;;;;;;;;;;30.75;29.58;100152.72;5384015;32;34218;-95
2022/08/01 06:54:54;;;;;;;;;;;;;;;32.06;27.87;100151.75;5400170;32;34517;-90
2022/08/01 06:57:59;;;;;;;;;;;;;;;31.08;29.07;100155.66;5396762;32;34651;-91
2022/08/01 07:01:05;;;;;;;;;;;;;;;32.77;26.34;100144.94;5390469;32;34459;-93
2022/08/01 07:04:08;;;;;;;;;;;;;;;31.72;27.96;100149.97;5380789;32;45137;-91
2022/08/01 07:07:13;;;;;;;;;;;;;;;31.46;28.47;100141.72;5387212;32;34740;-96
2022/08/01 07:10:21;;;;;;;;;;;;;;;30.35;29.22;100143.38;5409255;32;35741;-95
2022/08/01 07:13:26;;;;;;;;;;;;;;;31.13;27.26;100142.34;5421818;32;35112;-94
2022/08/01 07:16:47;;;;;;;;;;;;;;;30.23;29.25;100145.75;5407464;32;33456;-96
2022/08/01 07:20:10;;;;;;;;;;;;;;;30.20;29.24;100133.41;5389273;32;35702;-96
2022/08/01 07:23:29;;;;;;;;;;;;;;;31.83;26.42;100126.00;5395045;32;35021;-94
2022/08/01 07:26:53;;;;;;;;;;;;;;;32.34;25.50;100132.63;5347303;32;35449;-95
2022/08/01 07:29:58;;;;;;;;;;;;;;;31.96;26.08;100120.59;5339576;32;34572;-94
2022/08/01 07:33:03;;;;;;;;;;;;;;;32.72;25.43;100137.44;5319076;32;33897;-95
2022/08/01 07:36:16;;;;;;;;;;;;;;;31.16;27.27;100135.66;5309743;32;44353;-93
2022/08/01 07:39:35;;;;;;;;;;;;;;;33.00;24.14;100136.38;5323345;32;35904;-94
2022/08/01 07:42:44;;;;;;;;;;;;;;;33.35;23.47;100132.31;5336349;32;44017;-95
2022/08/01 07:45:52;;;;;;;;;;;;;;;33.88;22.90;100136.75;5342597;32;34967;-96
2022/08/01 07:48:59;;;;;;;;;;;;;;;33.59;23.69;100121.78;5311869;32;35298;-92
2022/08/01 07:52:14;;;;;;;;;;;;;;;32.66;24.51;100129.28;5291358;32;36126;-96
2022/08/01 07:55:28;;;;;;;;;;;;;;;32.90;23.62;100139.53;5349828;32;34629;-95
2022/08/01 07:58:37;;;;;;;;;;;;;;;32.60;24.22;100141.84;5316839;32;34112;-93
2022/08/01 08:01:54;;;;;;;;;;;;;;;32.65;24.56;100128.41;5335480;32;44340;-95
2022/08/01 08:05:10;;;;;;;;;;;;;;;32.01;24.19;100128.97;5347153;32;35720;-93
2022/08/01 08:08:14;;;;;;;;;;;;;;;32.55;23.18;100125.31;5326894;32;34583;-93
2022/08/01 08:11:26;;;;;;;;;;;;;;;33.20;22.68;100129.00;5365734;32;35758;-96
2022/08/01 08:14:47;;;;;;;;;;;;;;;33.05;23.01;100128.44;5283577;33;36368;-93
2022/08/01 08:18:01;;;;;;;;;;;;;;;33.78;21.65;100126.28;5354237;32;33528;-95
2022/08/01 08:21:13;;;;;;;;;;;;;;;32.64;22.94;100129.47;5330307;32;44421;-93
2022/08/01 08:24:20;;;;;;;;;;;;;;;31.64;24.14;100133.84;5327026;32;33744;-95
2022/08/01 08:27:30;;;;;;;;;;;;;;;31.89;23.97;100123.31;5370248;32;35248;-94
2022/08/01 08:30:42;;;;;;;;;;;;;;;31.89;24.04;100128.75;5372098;32;44883;-94
2022/08/01 08:33:54;;;;;;;;;;;;;;;30.29;26.08;100144.16;5371473;32;33301;-95
2022/08/01 08:37:07;;;;;;;;;;;;;;;29.83;26.79;100147.16;5387056;32;34204;-96
2022/08/01 08:40:16;;;;;;;;;;;;;;;27.76;29.60;100165.59;5359246;32;42810;-94
2022/08/01 08:43:36;;;;;;;;;;;;;;;28.20;28.95;100159.56;5371239;32;35623;-96
2022/08/01 08:46:55;;;;;;;;;;;;;;;27.73;29.57;100161.38;5333429;32;33295;-94
2022/08/01 08:50:13;;;;;;;;;;;;;;;28.84;28.45;100166.34;5328339;32;34095;-95
2022/08/01 08:53:33;;;;;;;;;;;;;;;28.18;29.54;100165.16;5319228;33;34670;-96
2022/08/01 08:56:37;;;;;;;;;;;;;;;28.78;29.01;100174.34;5321124;32;43473;-95
2022/08/01 08:59:55;;;;;;;;;;;;;;;28.54;28.71;100176.25;5320933;32;34258;-94
2022/08/01 09:03:15;;;;;;;;;;;;;;;28.42;29.10;100182.28;5333243;32;36260;-96
2022/08/01 09:06:39;;;;;;;;;;;;;;;28.39;28.89;100177.22;5324234;32;32631;-93
2022/08/01 09:09:43;;;;;;;;;;;;;;;28.09;29.56;100181.62;5320323;27;34562;-69
2022/08/01 09:13:04;;;;;;;;;;;;;;;28.20;29.03;100176.63;5308339;32;35333;-74
2022/08/01 09:16:08;;;;;;;;;;;;;;;28.71;28.10;100174.22;5317716;33;46316;-67
2022/08/01 09:19:20;;;;;;;;;;;;;;;28.27;28.51;100179.44;5296065;32;34688;-76
2022/08/01 09:22:41;;;;;;;;;;;;;;;27.73;29.55;100182.13;5303083;32;44333;-73
2022/08/01 09:25:52;;;;;;;;;;;;;;;27.54;30.28;100178.81;5367794;32;35232;-68
2022/08/01 09:29:00;;;;;;;;;;;;;;;28.17;29.75;100179.69;5360182;32;35384;-65
2022/08/01 09:32:04;;;;;;;;;;;;;;;29.06;27.91;100178.19;5360489;32;35017;-64
2022/08/01 09:35:44;;;;;;;;;;;;;;;29.24;28.37;100168.84;5368366;32;44640;-74
2022/08/01 09:38:46;;;;;;;;;;;;;;;29.44;27.67;100166.44;5292052;32;35508;-73
2022/08/01 09:41:52;;;;;;;;;;;;;;;29.50;27.57;100165.66;5360712;32;35812;-65
2022/08/01 09:44:57;;;;;;;;;;;;;;;29.26;27.92;100167.66;5349826;32;36052;-65
2022/08/01 09:48:05;;;;;;;;;;;;;;;29.40;28.08;100160.53;5371278;32;35140;-74
2022/08/01 09:51:12;;;;;;;;;;;;;;;29.54;27.67;100170.53;5345088;32;44880;-74
2022/08/01 09:54:34;;;;;;;;;;;;;;;30.01;27.25;100168.41;5360223;32;35282;-76
2022/08/01 09:57:36;;;;;;;;;;;;;;;28.43;29.04;100173.13;5372310;32;44711;-66
2022/08/01 10:00:39;;;;;;;;;;;;;;;29.34;28.01;100170.25;5358971;32;35498;-82
2022/08/01 10:03:47;;;;;;;;;;;;;;;30.93;25.89;100163.06;5376181;32;34665;-75
2022/08/01 10:06:52;;;;;;;;;;;;;;;31.52;25.07;100155.31;5347361;32;37131;-73
2022/08/01 10:09:56;;;;;;;;;;;;;;;30.09;26.99;100158.31;5358541;32;36174;-68
2022/08/01 10:12:58;;;;;;;;;;;;;;;30.45;26.53;100166.37;5360643;32;34565;-66
2022/08/01 10:16:00;;;;;;;;;;;;;;;30.51;26.68;100170.19;5365906;32;34768;-67
2022/08/01 10:19:03;;;;;;;;;;;;;;;31.26;25.56;100169.59;5411149;32;34706;-73
2022/08/01 10:22:17;;;;;;;;;;;;;;;30.84;26.35;100173.22;5377263;32;32884;-68
2022/08/01 10:25:19;;;;;;;;;;;;;;;32.00;24.56;100159.91;5386749;32;35900;-75
2022/08/01 10:28:41;;;;;;;;;;;;;;;30.57;26.41;100169.41;5393886;32;44781;-75
2022/08/01 10:31:46;;;;;;;;;;;;;;;30.39;27.05;100166.31;5364752;32;36252;-70
2022/08/01 10:34:51;;;;;;;;;;;;;;;31.33;25.70;100171.50;5395239;32;37297;-70
2022/08/01 10:37:57;;;;;;;;;;;;;;;29.76;28.00;100159.78;5375276;32;35472;-73
2022/08/01 10:40:59;;;;;;;;;;;;;;;31.28;26.24;100155.81;5393281;32;35339;-81
2022/08/01 10:44:07;;;;;;;;;;;;;;;29.91;27.83;100160.59;5388638;32;44392;-68
2022/08/01 10:47:11;;;;;;;;;;;;;;;30.88;27.08;100150.09;5380223;32;36669;-67
2022/08/01 10:50:32;;;;;;;;;;;;;;;30.31;27.73;100147.50;5384487;32;35783;-69
2022/08/01 10:53:35;;;;;;;;;;;;;;;30.64;27.40;100148.63;5374875;32;35990;-73
2022/08/01 10:56:45;;;;;;;;;;;;;;;29.92;28.36;100146.84;5392819;32;44461;-74
2022/08/01 10:59:50;;;;;;;;;;;;;;;30.03;28.40;100144.69;5383980;32;33726;-69
2022/08/01 11:03:03;;;;;;;;;;;;;;;29.86;28.21;100144.06;5381296;32;36113;-68
2022/08/01 11:06:05;;;;;;;;;;;;;;;30.19;27.81;100145.28;5387454;32;44835;-72
2022/08/01 11:09:11;;;;;;;;;;;;;;;30.83;26.93;100146.28;5385115;32;34847;-65
2022/08/01 11:12:18;;;;;;;;;;;;;;;30.50;27.16;100144.12;5382179;32;35944;-71
2022/08/01 11:15:26;;;;;;;;;;;;;;;29.67;28.48;100140.94;5363745;32;34752;-76
2022/08/01 11:18:31;;;;;;;;;;;;;;;30.77;27.29;100142.50;5374823;32;35762;-70
2022/08/01 11:21:52;;;;;;;;;;;;;;;29.86;28.34;100135.94;5388134;32;34544;-65
2022/08/01 11:25:01;;;;;;;;;;;;;;;32.21;25.05;100129.84;5367778;32;35388;-74
2022/08/01 11:28:17;;;;;;;;;;;;;;;32.74;25.26;100134.50;5395473;32;44362;-78
2022/08/01 11:31:30;;;;;;;;;;;;;;;31.68;26.55;100124.22;5368310;32;34993;-73
2022/08/01 11:35:00;;;;;;;;;;;;;;;32.37;25.94;100123.19;5368651;32;44400;-77
2022/08/01 11:38:21;;;;;;;;;;;;;;;34.34;23.75;100113.81;5374777;32;35806;-67
2022/08/01 11:41:23;;;;;;;;;;;;;;;34.14;24.04;100103.03;5362303;32;35065;-74
2022/08/01 11:44:48;;;;;;;;;;;;;;;36.53;21.43;100101.97;5372832;32;45530;-74
2022/08/01 11:47:51;;;;;;;;;;;;;;;36.35;21.05;100097.38;5382749;32;36157;-68
2022/08/01 11:50:54;;;;;;;;;;;;;;;36.58;21.15;100107.56;5354223;32;35800;-74
2022/08/01 11:53:58;;;;;;;;;;;;;;;38.47;18.92;100100.47;5378568;32;34755;-73
2022/08/01 11:57:04;;;;;;;;;;;;;;;37.68;19.54;100098.50;5355448;32;35804;-72
2022/08/01 12:00:11;;;;;;;;;;;;;;;36.74;20.78;100099.69;5389102;32;43335;-72
2022/08/01 12:03:23;;;;;;;;;;;;;;;39.75;17.91;100094.84;5379662;32;35801;-74
2022/08/01 12:06:34;;;;;;;;;;;;;;;36.75;20.48;100109.59;5369259;32;35441;-75
2022/08/01 12:09:36;;;;;;;;;;;;;;;38.47;18.86;100090.34;5397520;32;44688;-78
2022/08/01 12:12:48;;;;;;;;;;;;;;;34.69;22.18;100103.22;5377395;32;35538;-77
2022/08/01 12:15:50;;;;;;;;;;;;;;;38.41;18.74;100106.97;5382130;32;35823;-80
2022/08/01 12:18:57;;;;;;;;;;;;;;;37.04;19.18;100103.19;5374964;32;35271;-67
2022/08/01 12:22:10;;;;;;;;;;;;;;;36.29;20.83;100103.81;5370078;32;35165;-67
2022/08/01 12:25:13;;;;;;;;;;;;;;;34.58;22.13;100106.69;5385050;32;44499;-68
2022/08/01 12:28:15;;;;;;;;;;;;;;;37.72;19.10;100095.25;5376316;32;38028;-69
2022/08/01 12:31:17;;;;;;;;;;;;;;;36.52;20.58;100094.81;5380268;32;35353;-74
2022/08/01 12:34:25;;;;;;;;;;;;;;;36.37;20.80;100097.16;5377900;32;37579;-69
2022/08/01 12:37:28;;;;;;;;;;;;;;;35.60;21.63;100094.28;5382799;32;35365;-68
2022/08/01 12:40:34;;;;;;;;;;;;;;;34.08;23.14;100093.03;5378222;32;35434;-68
2022/08/01 12:43:36;;;;;;;;;;;;;;;33.28;24.62;100093.34;5369340;32;48409;-64
2022/08/01 12:46:38;;;;;;;;;;;;;;;31.57;27.72;100100.41;5380186;32;34628;-70
2022/08/01 12:49:45;;;;;;;;;;;;;;;31.26;28.64;100098.16;5366901;32;34773;-76
2022/08/01 12:52:47;;;;;;;;;;;;;;;31.49;28.33;100103.28;5367201;32;36174;-73
2022/08/01 12:55:50;;;;;;;;;;;;;;;32.15;26.74;100091.78;5368317;32;34905;-71
2022/08/01 12:59:00;;;;;;;;;;;;;;;29.88;30.23;100106.78;5376512;32;37236;-72
2022/08/01 13:02:08;;;;;;;;;;;;;;;30.91;29.22;100091.87;5380751;32;35674;-73
2022/08/01 13:05:10;;;;;;;;;;;;;;;31.36;28.06;100092.34;5373877;32;44485;-66
2022/08/01 13:08:13;;;;;;;;;;;;;;;32.22;26.89;100089.91;5386023;32;34663;-68
2022/08/01 13:11:16;;;;;;;;;;;;;;;31.96;26.92;100088.81;5405839;32;35467;-73
2022/08/01 13:14:28;;;;;;;;;;;;;;;32.64;26.01;100087.81;5402260;32;35758;-69
2022/08/01 13:17:38;;;;;;;;;;;;;;;32.39;25.63;100085.75;5390096;32;35218;-69
2022/08/01 13:20:40;;;;;;;;;;;;;;;30.71;27.26;100083.59;5388372;32;46056;-70
2022/08/01 13:24:03;;;;;;;;;;;;;;;30.17;28.04;100082.31;5418763;32;34591;-68
2022/08/01 13:27:07;;;;;;;;;;;;;;;31.66;26.11;100076.59;5385696;32;47746;-80
2022/08/01 13:30:10;;;;;;;;;;;;;;;31.68;25.95;100072.62;5403961;32;35043;-81
2022/08/01 13:33:12;;;;;;;;;;;;;;;32.37;25.09;100076.12;5392279;32;34621;-85
2022/08/01 13:36:14;;;;;;;;;;;;;;;31.86;25.49;100071.25;5390796;32;34758;-69
2022/08/01 13:39:41;;;;;;;;;;;;;;;32.43;24.71;100065.25;5418529;32;34832;-68
2022/08/01 13:42:43;;;;;;;;;;;;;;;32.10;25.23;100067.94;5397092;32;44604;-67
2022/08/01 13:45:45;;;;;;;;;;;;;;;32.65;24.05;100065.84;5415792;32;35575;-66
2022/08/01 13:48:47;;;;;;;;;;;;;;;31.77;25.37;100071.41;5404361;32;36054;-78
2022/08/01 13:51:51;;;;;;;;;;;;;;;30.78;26.21;100064.66;5391331;32;35633;-70
2022/08/01 13:54:53;;;;;;;;;;;;;;;31.02;26.28;100061.47;5413042;32;37834;-69
2022/08/01 13:57:55;;;;;;;;;;;;;;;31.53;25.69;100048.34;5392355;32;35345;-84
2022/08/01 14:00:57;;;;;;;;;;;;;;;31.63;25.33;100061.56;5397044;32;35607;-75
2022/08/01 14:04:03;;;;;;;;;;;;;;;30.66;27.18;100070.63;5390636;32;33937;-81
2022/08/01 14:07:05;;;;;;;;;;;;;;;30.90;27.90;100044.91;5412885;32;43506;-67
2022/08/01 14:10:12;;;;;;;;;;;;;;;31.70;27.28;100061.56;5400829;32;34681;-66
2022/08/01 14:13:21;;;;;;;;;;;;;;;32.18;26.97;100066.88;5377167;32;36344;-85
2022/08/01 14:16:24;;;;;;;;;;;;;;;32.10;26.72;100070.66;5412259;32;34876;-65
2022/08/01 14:19:26;;;;;;;;;;;;;;;32.62;25.62;100063.56;5403344;32;34612;-66
2022/08/01 14:22:40;;;;;;;;;;;;;;;31.90;26.86;100067.06;5419280;32;44514;-65
2022/08/01 14:25:42;;;;;;;;;;;;;;;31.48;27.02;100064.41;5401731;32;35479;-76
2022/08/01 14:29:04;;;;;;;;;;;;;;;31.71;26.51;100068.66;5414331;32;35988;-64
2022/08/01 14:32:09;;;;;;;;;;;;;;;31.43;27.41;100066.06;5410680;32;44263;-66
2022/08/01 14:35:11;;;;;;;;;;;;;;;30.20;28.75;100064.81;5385811;32;34694;-78
2022/08/01 14:38:13;;;;;;;;;;;;;;;31.32;27.31;100066.66;5416381;32;35423;-67
2022/08/01 14:41:29;;;;;;;;;;;;;;;30.14;28.94;100069.16;5398771;32;35484;-67
2022/08/01 14:44:31;;;;;;;;;;;;;;;30.51;28.48;100077.16;5412465;32;34683;-68
2022/08/01 14:47:35;;;;;;;;;;;;;;;30.34;28.50;100073.91;5399926;32;35454;-72
2022/08/01 14:50:36;;;;;;;;;;;;;;;30.05;29.09;100070.28;5376452;32;46577;-71
2022/08/01 14:53:39;;;;;;;;;;;;;;;30.70;28.00;100074.63;5407393;32;35453;-67
2022/08/01 14:56:47;;;;;;;;;;;;;;;30.44;28.60;100077.13;5401601;32;35518;-68
2022/08/01 14:59:49;;;;;;;;;;;;;;;30.29;29.27;100079.09;5417505;32;34827;-69
2022/08/01 15:02:51;;;;;;;;;;;;;;;30.01;29.89;100066.28;5394344;32;35991;-89
2022/08/01 15:05:54;;;;;;;;;;;;;;;30.91;28.56;100062.84;5419487;32;35240;-83
2022/08/01 15:08:56;;;;;;;;;;;;;;;31.02;28.67;100070.44;5408452;32;35934;-67
2022/08/01 15:11:59;;;;;;;;;;;;;;;30.80;28.96;100055.31;5391039;32;34353;-84
2022/08/01 15:15:01;;;;;;;;;;;;;;;31.11;28.82;100062.12;5423498;32;34956;-66
2022/08/01 15:18:03;;;;;;;;;;;;;;;31.66;28.16;100066.56;5406369;32;34758;-65
2022/08/01 15:21:05;;;;;;;;;;;;;;;30.89;29.19;100064.94;5420916;32;46272;-89
2022/08/01 15:24:09;;;;;;;;;;;;;;;30.56;29.61;100066.56;5412695;32;34795;-85
2022/08/01 15:27:10;;;;;;;;;;;;;;;30.08;30.32;100067.19;5415333;32;33979;-83
2022/08/01 15:30:12;;;;;;;;;;;;;;;31.00;28.96;100056.25;5407221;32;38360;-67
2022/08/01 15:33:15;;;;;;;;;;;;;;;30.69;29.01;100070.25;5413996;32;34969;-66
2022/08/01 15:36:17;;;;;;;;;;;;;;;29.94;30.46;100068.91;5419162;32;35243;-85
2022/08/01 15:39:26;;;;;;;;;;;;;;;30.35;29.48;100067.47;5404243;32;36565;-85
2022/08/01 15:42:28;;;;;;;;;;;;;;;30.53;28.82;100067.81;5419763;32;35180;-67
2022/08/01 15:45:30;;;;;;;;;;;;;;;30.94;28.10;100058.94;5405803;32;35937;-75
2022/08/01 15:48:48;;;;;;;;;;;;;;;30.87;28.07;100068.91;5409227;32;35086;-66
2022/08/01 15:51:51;;;;;;;;;;;;;;;30.97;28.18;100072.91;5400732;32;35218;-88
2022/08/01 15:54:53;;;;;;;;;;;;;;;30.74;27.93;100072.38;5410644;32;35548;-65
2022/08/01 15:57:55;;;;;;;;;;;;;;;31.04;27.95;100070.25;5397306;32;34732;-74
2022/08/01 16:00:56;;;;;;;;;;;;;;;30.53;28.91;100069.66;5399819;32;35651;-73
2022/08/01 16:03:59;;;;;;;;;;;;;;;30.66;28.70;100065.19;5418443;32;34733;-66